createdAt,value
2023-03-13T00:01:26.590Z,39.67
2023-03-13T00:03:55.761Z,40.21
2023-03-13T00:06:26.982Z,40.99
2023-03-13T00:08:56.521Z,41.23
2023-03-13T00:11:26.391Z,41.18
2023-03-13T00:13:57.965Z,41.47
2023-03-13T00:16:28.153Z,41.30
2023-03-13T00:18:57.125Z,42.00
2023-03-13T00:21:26.711Z,44.32
2023-03-13T00:23:55.635Z,43.36
2023-03-13T00:26:25.310Z,42.70
2023-03-13T00:28:53.685Z,43.47
2023-03-13T00:31:30.788Z,44.81
2023-03-13T00:34:01.907Z,43.93
2023-03-13T00:36:34.455Z,45.51
2023-03-13T00:39:04.448Z,45.87
2023-03-13T00:41:36.504Z,45.41
2023-03-13T00:44:05.877Z,45.75
2023-03-13T00:46:33.885Z,46.06
2023-03-13T00:49:01.611Z,45.31
2023-03-13T00:51:29.911Z,44.69
2023-03-13T00:54:02.140Z,44.74
2023-03-13T00:56:29.817Z,44.60
2023-03-13T00:58:59.837Z,45.43
2023-03-13T01:01:32.993Z,44.65
2023-03-13T01:04:04.999Z,44.62
2023-03-13T01:06:35.505Z,44.32
2023-03-13T01:09:05.224Z,45.45
2023-03-13T01:11:35.642Z,45.32
2023-03-13T01:14:06.103Z,44.87
2023-03-13T01:16:35.628Z,43.90
2023-03-13T01:19:12.526Z,44.42
2023-03-13T01:21:42.405Z,44.74
2023-03-13T01:24:10.265Z,43.86
2023-03-13T01:26:37.864Z,43.15
2023-03-13T01:29:05.348Z,42.96
2023-03-13T01:31:35.485Z,42.87
2023-03-13T01:34:11.743Z,43.23
2023-03-13T01:36:39.767Z,43.91
2023-03-13T01:39:08.137Z,44.44
2023-03-13T01:41:38.601Z,44.14
2023-03-13T01:44:06.983Z,42.74
2023-03-13T01:46:37.945Z,44.22
2023-03-13T01:49:11.109Z,44.06
2023-03-13T01:51:43.468Z,43.69
2023-03-13T01:54:21.444Z,42.57
2023-03-13T01:56:53.172Z,42.75
2023-03-13T01:59:25.950Z,44.04
2023-03-13T02:01:57.764Z,44.06
2023-03-13T02:04:28.712Z,43.71
2023-03-13T02:06:58.507Z,42.18
2023-03-13T02:09:29.431Z,42.19
2023-03-13T02:12:15.818Z,42.86
2023-03-13T02:14:45.053Z,43.65
2023-03-13T02:17:14.079Z,42.25
2023-03-13T02:19:49.635Z,43.41
2023-03-13T02:22:20.313Z,43.38
2023-03-13T02:25:08.924Z,43.26
2023-03-13T02:27:36.719Z,43.29
2023-03-13T02:30:08.660Z,43.24
2023-03-13T02:32:37.884Z,43.46
2023-03-13T02:35:11.955Z,44.04
2023-03-13T02:37:43.611Z,43.70
2023-03-13T02:40:17.308Z,43.54
2023-03-13T02:42:46.529Z,44.96
2023-03-13T02:45:17.640Z,44.25
2023-03-13T02:47:45.532Z,44.56
2023-03-13T02:50:13.534Z,44.84
2023-03-13T02:52:55.627Z,43.79
2023-03-13T02:55:33.177Z,43.88
2023-03-13T02:58:01.003Z,43.98
2023-03-13T03:00:30.526Z,44.22
2023-03-13T03:02:58.269Z,44.61
2023-03-13T03:05:26.788Z,45.37
2023-03-13T03:07:54.278Z,45.55
2023-03-13T03:10:22.216Z,45.91
2023-03-13T03:12:50.665Z,46.15
2023-03-13T03:15:18.561Z,45.82
2023-03-13T03:17:48.304Z,45.53
2023-03-13T03:20:16.409Z,45.32
2023-03-13T03:22:44.214Z,46.00
2023-03-13T03:25:12.209Z,45.94
2023-03-13T03:27:40.334Z,44.98
2023-03-13T03:30:09.096Z,44.42
2023-03-13T03:32:37.155Z,44.64
2023-03-13T03:35:05.860Z,44.18
2023-03-13T03:37:34.530Z,46.22
2023-03-13T03:40:05.888Z,46.41
2023-03-13T03:42:34.259Z,46.39
2023-03-13T03:45:02.805Z,45.72
2023-03-13T03:47:31.389Z,46.62
2023-03-13T03:50:00.362Z,46.71
2023-03-13T03:52:28.195Z,45.94
2023-03-13T03:54:55.853Z,46.25
2023-03-13T03:57:24.642Z,46.15
2023-03-13T03:59:52.109Z,46.69
2023-03-13T04:02:20.012Z,47.70
2023-03-13T04:04:48.378Z,47.78
2023-03-13T04:07:18.432Z,48.01
2023-03-13T04:09:46.499Z,47.78
2023-03-13T04:12:15.863Z,47.69
2023-03-13T04:14:46.670Z,46.83
2023-03-13T04:17:17.036Z,47.25
2023-03-13T04:19:45.828Z,46.75
2023-03-13T04:22:13.753Z,47.22
2023-03-13T04:24:43.276Z,46.71
2023-03-13T04:27:11.023Z,46.55
2023-03-13T04:29:38.823Z,45.56
2023-03-13T04:32:07.594Z,45.44
2023-03-13T04:34:35.777Z,46.33
2023-03-13T04:37:03.808Z,46.66
2023-03-13T04:39:33.235Z,45.81
2023-03-13T04:42:02.725Z,47.33
2023-03-13T04:44:32.784Z,46.58
2023-03-13T04:47:02.159Z,47.42
2023-03-13T04:49:30.635Z,48.18
2023-03-13T04:51:58.497Z,47.73
2023-03-13T04:54:27.892Z,47.97
2023-03-13T04:56:57.144Z,47.23
2023-03-13T04:59:25.377Z,46.88
2023-03-13T05:01:54.125Z,46.58
2023-03-13T05:04:22.857Z,45.89
2023-03-13T05:06:52.594Z,46.26
2023-03-13T05:09:21.695Z,46.82
2023-03-13T05:11:50.765Z,45.91
2023-03-13T05:14:19.576Z,45.68
2023-03-13T05:16:48.873Z,45.77
2023-03-13T05:19:22.579Z,45.74
2023-03-13T05:21:56.791Z,45.79
2023-03-13T05:24:26.558Z,45.96
2023-03-13T05:26:56.180Z,46.00
2023-03-13T05:29:25.363Z,46.38
2023-03-13T05:31:55.473Z,45.80
2023-03-13T05:34:25.053Z,45.89
2023-03-13T05:36:53.525Z,46.27
2023-03-13T05:39:23.780Z,45.82
2023-03-13T05:41:52.026Z,45.73
2023-03-13T05:44:20.338Z,45.43
2023-03-13T05:46:50.182Z,45.82
2023-03-13T05:49:18.352Z,45.64
2023-03-13T05:51:48.410Z,46.60
2023-03-13T05:54:16.714Z,46.31
2023-03-13T05:56:50.561Z,45.76
2023-03-13T05:59:23.246Z,45.24
2023-03-13T06:01:53.647Z,46.14
2023-03-13T06:04:25.082Z,46.36
2023-03-13T06:09:31.604Z,46.93
2023-03-13T06:12:00.574Z,46.52
2023-03-13T06:14:28.554Z,46.56
2023-03-13T06:16:57.174Z,45.72
2023-03-13T06:19:25.875Z,45.67
2023-03-13T06:21:53.457Z,45.84
2023-03-13T06:24:22.013Z,45.75
2023-03-13T06:26:51.541Z,45.13
2023-03-13T06:29:19.790Z,45.80
2023-03-13T06:31:47.936Z,44.73
2023-03-13T06:34:16.966Z,44.79
2023-03-13T06:36:44.959Z,44.58
2023-03-13T06:39:13.400Z,44.78
2023-03-13T06:41:41.134Z,44.60
2023-03-13T06:44:11.274Z,44.00
2023-03-13T06:46:42.800Z,44.62
2023-03-13T06:49:10.635Z,44.51
2023-03-13T06:51:38.422Z,44.63
2023-03-13T06:54:07.093Z,43.48
2023-03-13T06:56:35.733Z,44.48
2023-03-13T06:59:05.905Z,44.47
2023-03-13T07:01:40.933Z,44.02
2023-03-13T07:04:13.598Z,44.02
2023-03-13T07:06:43.081Z,44.09
2023-03-13T07:09:12.488Z,42.72
2023-03-13T07:11:44.075Z,43.44
2023-03-13T07:14:17.429Z,43.27
2023-03-13T07:16:47.662Z,44.19
2023-03-13T07:19:16.439Z,43.16
2023-03-13T07:21:45.086Z,42.44
2023-03-13T07:24:13.623Z,42.88
2023-03-13T07:26:48.689Z,42.95
2023-03-13T07:29:25.896Z,42.11
2023-03-13T07:31:53.745Z,41.67
2023-03-13T07:34:30.462Z,41.75
2023-03-13T07:37:03.113Z,41.51
2023-03-13T07:39:31.066Z,41.29
2023-03-13T07:41:59.856Z,41.99
2023-03-13T07:44:31.587Z,41.71
2023-03-13T07:47:03.625Z,41.45
2023-03-13T07:49:32.528Z,41.03
2023-03-13T07:52:05.932Z,40.24
2023-03-13T07:54:35.068Z,40.26
2023-03-13T07:57:03.548Z,39.97
2023-03-13T07:59:33.680Z,39.66
2023-03-13T08:02:03.589Z,39.04
2023-03-13T08:04:32.113Z,38.15
2023-03-13T08:07:07.725Z,38.53
2023-03-13T08:09:36.148Z,39.41
2023-03-13T08:12:05.318Z,38.19
2023-03-13T08:14:34.200Z,37.88
2023-03-13T08:17:04.609Z,37.26
2023-03-13T08:19:33.630Z,37.15
2023-03-13T08:22:03.839Z,37.24
2023-03-13T08:24:38.581Z,37.24
2023-03-13T08:27:06.628Z,36.54
2023-03-13T08:29:34.758Z,36.87
2023-03-13T08:32:03.013Z,35.80
2023-03-13T08:34:31.840Z,35.97
2023-03-13T08:37:02.728Z,35.11
2023-03-13T08:39:30.703Z,36.58
2023-03-13T08:42:01.483Z,35.69
2023-03-13T08:44:29.681Z,35.54
2023-03-13T08:47:00.561Z,35.70
2023-03-13T08:49:30.154Z,35.33
2023-03-13T08:51:58.159Z,34.36
2023-03-13T08:54:26.054Z,34.32
2023-03-13T08:56:54.096Z,33.47
2023-03-13T08:59:22.866Z,34.81
2023-03-13T09:01:50.774Z,34.86
2023-03-13T09:04:19.650Z,34.64
2023-03-13T09:06:49.236Z,34.11
2023-03-13T09:09:17.250Z,33.82
2023-03-13T09:11:45.268Z,34.06
2023-03-13T09:14:13.034Z,33.73
2023-03-13T09:16:41.053Z,34.28
2023-03-13T09:19:09.340Z,32.79
2023-03-13T09:21:43.967Z,32.51
2023-03-13T09:24:16.666Z,32.56
2023-03-13T09:27:00.167Z,32.78
2023-03-13T09:29:33.499Z,33.14
2023-03-13T09:32:02.118Z,33.34
2023-03-13T09:34:30.415Z,33.58
2023-03-13T09:37:01.780Z,32.36
2023-03-13T09:39:30.573Z,32.49
2023-03-13T09:42:10.302Z,31.10
2023-03-13T09:44:47.993Z,31.01
2023-03-13T09:47:33.675Z,30.76
2023-03-13T09:50:13.264Z,29.84
2023-03-13T09:52:41.688Z,30.26
2023-03-13T09:55:24.871Z,30.52
2023-03-13T09:58:21.561Z,30.54
2023-03-13T10:00:58.470Z,30.12
2023-03-13T10:03:39.656Z,29.36
2023-03-13T10:06:20.732Z,29.53
2023-03-13T10:08:49.748Z,30.61
2023-03-13T10:11:24.732Z,29.65
2023-03-13T10:14:13.612Z,29.82
2023-03-13T10:16:48.527Z,29.26
2023-03-13T10:19:22.373Z,28.64
2023-03-13T10:21:53.091Z,28.54
2023-03-13T10:24:32.831Z,28.55
2023-03-13T10:27:04.554Z,29.15
2023-03-13T10:29:34.505Z,28.93
2023-03-13T10:32:04.887Z,29.70
2023-03-13T10:34:57.198Z,28.94
2023-03-13T10:37:33.943Z,28.49
2023-03-13T10:40:15.509Z,29.11
2023-03-13T10:42:45.401Z,28.32
2023-03-13T10:45:23.913Z,28.50
2023-03-13T10:48:13.705Z,27.86
2023-03-13T10:50:47.568Z,27.71
2023-03-13T10:53:40.489Z,27.20
2023-03-13T10:56:19.654Z,27.53
2023-03-13T10:58:51.506Z,27.61
2023-03-13T11:01:19.571Z,28.34
2023-03-13T11:03:48.834Z,27.58
2023-03-13T11:06:27.688Z,27.94
2023-03-13T11:09:13.722Z,27.96
2023-03-13T11:11:53.150Z,27.98
2023-03-13T11:14:26.177Z,27.95
2023-03-13T11:17:05.390Z,27.91
2023-03-13T11:19:40.912Z,27.72
2023-03-13T11:22:19.090Z,27.75
2023-03-13T11:25:06.021Z,28.24
2023-03-13T11:27:52.267Z,28.31
2023-03-13T11:30:48.532Z,29.51
2023-03-13T11:33:25.697Z,28.38
2023-03-13T11:35:54.789Z,27.64
2023-03-13T11:39:02.659Z,28.52
2023-03-13T11:41:40.090Z,28.50
2023-03-13T11:44:28.461Z,28.04
2023-03-13T11:47:09.525Z,28.67
2023-03-13T11:49:46.530Z,27.58
2023-03-13T11:52:34.072Z,27.97
2023-03-13T11:58:30.986Z,27.74
2023-03-13T12:01:18.699Z,27.31
2023-03-13T12:06:41.977Z,26.88
2023-03-13T12:09:17.697Z,26.75
2023-03-13T12:12:05.353Z,27.04
2023-03-13T12:14:40.665Z,28.45
2023-03-13T12:17:31.260Z,27.78
2023-03-13T12:20:09.292Z,28.23
2023-03-13T12:22:51.617Z,28.12
2023-03-13T12:25:30.895Z,28.74
2023-03-13T12:28:28.859Z,28.87
2023-03-13T12:31:18.031Z,28.50
2023-03-13T12:33:56.656Z,28.73
2023-03-13T12:36:42.198Z,29.14
2023-03-13T12:42:41.028Z,29.09
2023-03-13T12:45:16.984Z,28.44
2023-03-13T12:48:05.556Z,28.12
2023-03-13T12:51:14.145Z,27.90
2023-03-13T12:54:02.483Z,27.55
2023-03-13T12:56:43.520Z,27.94
2023-03-13T12:59:41.609Z,28.35
2023-03-13T13:02:22.573Z,27.21
2023-03-13T13:04:56.825Z,28.23
2023-03-13T13:07:29.760Z,28.03
2023-03-13T13:10:11.681Z,28.48
2023-03-13T13:12:48.586Z,29.31
2023-03-13T13:15:27.535Z,29.43
2023-03-13T13:18:00.933Z,28.74
2023-03-13T13:20:38.746Z,28.46
2023-03-13T13:23:21.984Z,29.99
2023-03-13T13:26:26.960Z,29.93
2023-03-13T13:29:01.305Z,29.53
2023-03-13T13:31:49.873Z,29.06
2023-03-13T13:34:35.591Z,29.29
2023-03-13T13:37:19.505Z,30.31
2023-03-13T13:39:52.899Z,30.09
2023-03-13T13:42:42.258Z,29.80
2023-03-13T13:45:16.750Z,29.79
2023-03-13T13:47:52.477Z,30.28
2023-03-13T13:50:30.596Z,30.24
2023-03-13T13:53:34.930Z,30.50
2023-03-13T13:56:32.830Z,30.07
2023-03-13T13:59:21.383Z,29.30
2023-03-13T14:01:53.733Z,29.53
2023-03-13T14:04:30.655Z,29.43
2023-03-13T14:07:04.557Z,29.81
2023-03-13T14:09:51.529Z,30.10
2023-03-13T14:12:35.102Z,30.79
2023-03-13T14:15:17.688Z,30.82
2023-03-13T14:17:49.913Z,31.10
2023-03-13T14:20:44.864Z,30.63
2023-03-13T14:23:14.753Z,30.53
2023-03-13T14:25:59.534Z,31.02
2023-03-13T14:31:35.725Z,30.77
2023-03-13T14:34:06.178Z,31.01
2023-03-13T14:36:51.919Z,31.18
2023-03-13T14:39:23.506Z,31.65
2023-03-13T14:41:54.046Z,31.59
2023-03-13T14:44:31.826Z,31.12
2023-03-13T14:47:07.644Z,31.62
2023-03-13T14:49:49.868Z,31.36
2023-03-13T14:52:29.779Z,31.72
2023-03-13T14:55:10.756Z,31.89
2023-03-13T14:57:56.773Z,31.59
2023-03-13T15:03:17.097Z,32.09
2023-03-13T15:05:50.628Z,33.00
2023-03-13T15:08:24.578Z,32.93
2023-03-13T15:10:53.347Z,32.93
2023-03-13T15:13:37.605Z,33.97
2023-03-13T15:16:18.718Z,33.62
2023-03-13T15:19:01.769Z,33.48
2023-03-13T15:21:35.607Z,33.33
2023-03-13T15:24:14.787Z,33.63
2023-03-13T15:26:43.204Z,32.35
2023-03-13T15:29:13.777Z,33.33
2023-03-13T15:31:46.780Z,33.05
2023-03-13T15:34:25.415Z,33.62
2023-03-13T15:36:55.521Z,33.01
2023-03-13T15:39:25.524Z,33.67
2023-03-13T15:41:54.820Z,33.45
2023-03-13T15:44:27.609Z,33.22
2023-03-13T15:47:05.663Z,32.50
2023-03-13T15:49:36.728Z,32.67
2023-03-13T15:52:26.645Z,32.73
2023-03-13T15:55:12.520Z,33.19
2023-03-13T15:57:46.289Z,33.55
2023-03-13T16:00:27.598Z,33.70
2023-03-13T16:03:05.586Z,33.80
2023-03-13T16:08:34.647Z,33.36
2023-03-13T16:11:04.205Z,33.45
2023-03-13T16:13:44.831Z,33.28
2023-03-13T16:16:25.527Z,33.57
2023-03-13T16:18:56.404Z,33.75
2023-03-13T16:21:35.593Z,33.76
2023-03-13T16:24:05.744Z,34.21
2023-03-13T16:26:41.688Z,33.83
2023-03-13T16:29:22.554Z,34.36
2023-03-13T16:31:51.651Z,34.24
2023-03-13T16:34:26.147Z,34.11
2023-03-13T16:36:55.577Z,33.91
2023-03-13T16:39:26.664Z,34.10
2023-03-13T16:41:54.752Z,34.51
2023-03-13T16:44:27.434Z,35.61
2023-03-13T16:47:05.547Z,35.34
2023-03-13T16:49:42.693Z,35.52
2023-03-13T16:52:17.891Z,36.14
2023-03-13T16:54:58.588Z,36.04
2023-03-13T16:57:31.706Z,35.85
2023-03-13T17:00:16.376Z,35.94
2023-03-13T17:02:50.098Z,35.24
2023-03-13T17:05:19.701Z,35.28
2023-03-13T17:07:53.434Z,35.84
2023-03-13T17:10:34.920Z,36.39
2023-03-13T17:13:06.961Z,36.52
2023-03-13T17:15:36.947Z,37.22
2023-03-13T17:18:05.517Z,36.78
2023-03-13T17:20:34.675Z,36.95
2023-03-13T17:23:10.591Z,36.56
2023-03-13T17:25:42.540Z,36.79
2023-03-13T17:28:15.472Z,36.94
2023-03-13T17:30:48.325Z,36.80
2023-03-13T17:38:30.873Z,37.37
2023-03-13T17:41:01.780Z,37.88
2023-03-13T17:43:32.614Z,38.24
2023-03-13T17:46:22.707Z,37.81
2023-03-13T17:48:54.453Z,37.74
2023-03-13T17:51:32.625Z,37.48
2023-03-13T17:54:02.515Z,36.81
2023-03-13T17:56:40.455Z,37.36
2023-03-13T18:01:59.024Z,37.96
2023-03-13T18:04:45.846Z,38.13
2023-03-13T18:07:35.613Z,38.13
2023-03-13T18:10:20.719Z,38.25
2023-03-13T18:12:52.750Z,38.25
2023-03-13T18:18:01.926Z,38.31
2023-03-13T18:20:39.603Z,38.79
2023-03-13T18:23:10.052Z,38.43
2023-03-13T18:28:17.510Z,38.99
2023-03-13T18:30:55.818Z,39.03
2023-03-13T18:33:30.824Z,39.25
2023-03-13T18:36:07.572Z,39.36
2023-03-13T18:38:42.594Z,39.32
2023-03-13T18:41:15.711Z,39.95
2023-03-13T18:43:46.649Z,40.09
2023-03-13T18:46:27.998Z,40.36
2023-03-13T18:49:02.858Z,40.18
2023-03-13T18:51:32.522Z,40.72
2023-03-13T18:54:01.156Z,39.97
2023-03-13T18:56:33.455Z,40.92
2023-03-13T18:59:03.535Z,40.83
2023-03-13T19:01:34.839Z,40.27
2023-03-13T19:04:10.696Z,40.35
2023-03-13T19:06:43.611Z,40.65
2023-03-13T19:09:42.250Z,40.54
2023-03-13T19:12:14.666Z,41.60
2023-03-13T19:14:57.803Z,40.89
2023-03-13T19:17:29.558Z,40.82
2023-03-13T19:20:02.694Z,41.45
2023-03-13T19:22:39.030Z,41.52
2023-03-13T19:25:17.484Z,42.06
2023-03-13T19:27:53.830Z,42.13
2023-03-13T19:30:29.557Z,42.05
2023-03-13T19:33:12.086Z,41.81
2023-03-13T19:35:48.103Z,42.16
2023-03-13T19:38:26.834Z,42.19
2023-03-13T19:41:03.604Z,42.32
2023-03-13T19:43:32.583Z,41.98
2023-03-13T19:46:27.896Z,41.56
2023-03-13T19:49:01.006Z,41.61
2023-03-13T19:51:33.580Z,41.28
2023-03-13T19:54:06.545Z,40.97
2023-03-13T19:56:41.021Z,40.67
2023-03-13T20:01:56.088Z,40.38
2023-03-13T20:04:34.664Z,40.48
2023-03-13T20:07:13.350Z,40.93
2023-03-13T20:09:43.934Z,39.95
2023-03-13T20:12:14.591Z,39.55
2023-03-13T20:14:43.296Z,39.51
2023-03-13T20:17:14.805Z,39.99
2023-03-13T20:19:48.664Z,39.88
2023-03-13T20:22:23.567Z,40.38
2023-03-13T20:24:53.536Z,40.14
2023-03-13T20:27:22.327Z,39.63
2023-03-13T20:29:56.698Z,40.03
2023-03-13T20:32:25.966Z,39.80
2023-03-13T20:34:54.653Z,40.55
2023-03-13T20:37:25.446Z,39.14
2023-03-13T20:42:35.518Z,39.77
2023-03-13T20:45:12.540Z,39.20
2023-03-13T20:47:43.672Z,39.45
2023-03-13T20:50:14.014Z,39.09
2023-03-13T20:52:44.043Z,39.03
2023-03-13T20:55:22.728Z,38.62
2023-03-13T20:57:56.510Z,38.52
2023-03-13T21:00:25.013Z,38.75
2023-03-13T21:02:56.940Z,39.39
2023-03-13T21:05:33.511Z,38.85
2023-03-13T21:08:01.256Z,38.81
2023-03-13T21:10:31.019Z,38.71
2023-03-13T21:13:09.542Z,38.69
2023-03-13T21:15:37.886Z,38.41
2023-03-13T21:18:06.660Z,37.76
2023-03-13T21:20:38.572Z,37.92
2023-03-13T21:23:07.009Z,37.90
2023-03-13T21:25:34.790Z,37.48
2023-03-13T21:28:04.562Z,37.88
2023-03-13T21:30:39.624Z,37.62
2023-03-13T21:33:07.637Z,37.89
2023-03-13T21:35:35.810Z,37.81
2023-03-13T21:38:04.623Z,38.04
2023-03-13T21:40:40.724Z,38.75
2023-03-13T21:43:10.660Z,38.80
2023-03-13T21:45:39.366Z,39.03
2023-03-13T21:48:08.026Z,38.91
2023-03-13T21:50:36.283Z,39.21
2023-03-13T21:53:04.372Z,38.48
2023-03-13T21:55:35.493Z,38.74
2023-03-13T21:58:04.732Z,37.83
2023-03-13T22:00:36.084Z,37.95
2023-03-13T22:03:08.110Z,38.81
2023-03-13T22:05:42.497Z,38.97
2023-03-13T22:08:12.652Z,38.62
2023-03-13T22:10:40.740Z,38.82
2023-03-13T22:13:10.686Z,38.98
2023-03-13T22:15:39.103Z,38.75
2023-03-13T22:18:07.370Z,38.80
2023-03-13T22:20:35.678Z,38.70
2023-03-13T22:23:04.834Z,39.12
2023-03-13T22:25:32.672Z,39.42
2023-03-13T22:28:00.413Z,39.28
2023-03-13T22:30:30.591Z,39.22
2023-03-13T22:32:58.772Z,39.32
2023-03-13T22:35:26.535Z,39.46
2023-03-13T22:37:54.397Z,40.20
2023-03-13T22:40:22.284Z,39.50
2023-03-13T22:42:52.676Z,39.52
2023-03-13T22:45:20.838Z,40.18
2023-03-13T22:47:48.897Z,40.57
2023-03-13T22:50:20.564Z,40.64
2023-03-13T22:52:53.260Z,40.26
2023-03-13T22:55:22.730Z,40.23
2023-03-13T22:57:51.101Z,41.22
2023-03-13T23:00:19.126Z,40.72
2023-03-13T23:02:55.197Z,42.15
2023-03-13T23:05:23.278Z,41.74
2023-03-13T23:07:51.155Z,41.50
2023-03-13T23:10:22.991Z,41.09
2023-03-13T23:12:51.163Z,41.97
2023-03-13T23:15:19.408Z,41.34
2023-03-13T23:17:47.524Z,41.99
2023-03-13T23:20:16.341Z,41.99
2023-03-13T23:22:45.564Z,42.10
2023-03-13T23:25:14.173Z,43.20
2023-03-13T23:27:42.809Z,42.90
2023-03-13T23:30:14.240Z,43.25
2023-03-13T23:32:44.433Z,43.10
2023-03-13T23:35:19.496Z,42.75
2023-03-13T23:37:49.487Z,43.03
2023-03-13T23:40:17.426Z,43.13
2023-03-13T23:42:46.704Z,43.34
2023-03-13T23:45:14.605Z,43.27
2023-03-13T23:47:44.050Z,42.78
2023-03-13T23:50:16.100Z,43.30
2023-03-13T23:52:44.127Z,42.93
2023-03-13T23:55:15.277Z,43.33
2023-03-13T23:57:43.205Z,43.05
